createdAt,value
2018-10-17T00:00:55.460Z,21.20
2018-10-17T00:03:23.979Z,21.20
2018-10-17T00:08:20.622Z,21.10
2018-10-17T00:10:49.892Z,21.10
2018-10-17T00:13:18.348Z,20.90
2018-10-17T00:15:46.904Z,20.80
2018-10-17T00:18:15.468Z,20.70
2018-10-17T00:23:12.355Z,20.50
2018-10-17T00:25:40.831Z,20.40
2018-10-17T00:28:09.408Z,20.40
2018-10-17T00:30:37.992Z,20.30
2018-10-17T00:33:06.722Z,20.20
2018-10-17T00:35:35.235Z,20.10
2018-10-17T00:38:03.847Z,20.10
2018-10-17T00:40:32.367Z,20.10
2018-10-17T00:43:00.929Z,20.10
2018-10-17T00:45:29.456Z,20.10
2018-10-17T00:47:57.936Z,20.10
2018-10-17T00:50:26.456Z,20.20
2018-10-17T00:52:54.983Z,20.30
2018-10-17T00:55:23.479Z,20.30
2018-10-17T00:57:51.999Z,20.30
2018-10-17T01:00:20.555Z,20.30
2018-10-17T01:02:49.056Z,20.20
2018-10-17T01:05:17.565Z,20.20
2018-10-17T01:07:46.237Z,20.10
2018-10-17T01:10:15.203Z,20.00
2018-10-17T01:12:47.805Z,19.90
2018-10-17T01:15:16.527Z,19.80
2018-10-17T01:17:45.060Z,19.70
2018-10-17T01:20:13.644Z,19.60
2018-10-17T01:22:42.300Z,19.60
2018-10-17T01:25:10.815Z,19.50
2018-10-17T01:27:39.452Z,19.50
2018-10-17T01:30:08.160Z,19.40
2018-10-17T01:35:05.850Z,19.40
2018-10-17T01:40:02.626Z,19.30
2018-10-17T01:42:31.180Z,19.30
2018-10-17T01:44:59.675Z,19.30
2018-10-17T01:47:28.213Z,19.30
2018-10-17T01:49:56.703Z,19.20
2018-10-17T01:52:25.224Z,19.20
2018-10-17T01:54:53.773Z,19.20
2018-10-17T01:57:22.271Z,19.40
2018-10-17T01:59:50.763Z,19.40
2018-10-17T02:02:19.331Z,19.40
2018-10-17T02:07:16.146Z,19.40
2018-10-17T02:09:44.621Z,19.40
2018-10-17T02:12:13.159Z,19.30
2018-10-17T02:17:09.804Z,19.30
2018-10-17T02:19:38.284Z,19.30
2018-10-17T02:24:34.894Z,19.30
2018-10-17T02:27:03.351Z,19.30
2018-10-17T02:29:31.843Z,19.20
2018-10-17T02:32:00.300Z,19.20
2018-10-17T02:34:28.816Z,19.10
2018-10-17T02:36:57.319Z,19.00
2018-10-17T02:39:25.799Z,19.00
2018-10-17T02:41:54.215Z,19.00
2018-10-17T02:44:23.959Z,18.90
2018-10-17T02:46:52.554Z,19.00
2018-10-17T02:49:21.065Z,19.10
2018-10-17T02:51:49.536Z,19.10
2018-10-17T02:54:17.964Z,19.10
2018-10-17T02:56:46.485Z,19.10
2018-10-17T02:59:15.091Z,19.00
2018-10-17T03:01:43.577Z,18.90
2018-10-17T03:04:12.245Z,18.90
2018-10-17T03:06:40.778Z,18.90
2018-10-17T03:09:09.625Z,18.90
2018-10-17T03:11:38.112Z,18.90
2018-10-17T03:14:06.609Z,18.90
2018-10-17T03:19:03.346Z,18.80
2018-10-17T03:21:31.828Z,18.70
2018-10-17T03:24:00.261Z,18.80
2018-10-17T03:26:28.729Z,18.80
2018-10-17T03:28:57.334Z,18.80
2018-10-17T03:33:53.974Z,18.80
2018-10-17T03:36:22.452Z,18.70
2018-10-17T03:38:51.081Z,18.70
2018-10-17T03:41:19.623Z,18.70
2018-10-17T03:43:48.152Z,18.60
2018-10-17T03:51:12.995Z,18.60
2018-10-17T03:53:41.598Z,18.60
2018-10-17T03:56:10.078Z,18.60
2018-10-17T03:58:38.496Z,18.70
2018-10-17T04:01:07.070Z,18.70
2018-10-17T04:03:35.537Z,18.70
2018-10-17T04:06:03.996Z,18.80
2018-10-17T04:08:32.560Z,18.80
2018-10-17T04:13:29.272Z,18.70
2018-10-17T04:15:57.841Z,18.70
2018-10-17T04:18:26.306Z,18.80
2018-10-17T04:20:54.760Z,18.80
2018-10-17T04:23:23.280Z,18.90
2018-10-17T04:25:52.412Z,19.00
2018-10-17T04:28:20.919Z,19.10
2018-10-17T04:30:49.436Z,19.00
2018-10-17T04:33:18.126Z,19.00
2018-10-17T04:35:46.581Z,18.90
2018-10-17T04:38:15.156Z,18.90
2018-10-17T04:40:43.639Z,18.90
2018-10-17T04:43:12.392Z,18.90
2018-10-17T04:45:40.795Z,18.80
2018-10-17T04:48:09.363Z,18.70
2018-10-17T04:50:37.854Z,18.80
2018-10-17T04:53:06.490Z,18.80
2018-10-17T04:55:34.808Z,18.80
2018-10-17T05:00:31.440Z,18.60
2018-10-17T05:02:59.979Z,18.60
2018-10-17T05:05:28.502Z,18.50
2018-10-17T05:07:57.054Z,18.50
2018-10-17T05:10:25.756Z,18.40
2018-10-17T05:12:54.263Z,18.40
2018-10-17T05:15:23.389Z,18.50
2018-10-17T05:17:51.881Z,18.50
2018-10-17T05:20:20.362Z,18.50
2018-10-17T05:22:48.922Z,18.50
2018-10-17T05:25:17.655Z,18.40
2018-10-17T05:27:46.039Z,18.40
2018-10-17T05:30:14.594Z,18.40
2018-10-17T05:32:43.141Z,18.40
2018-10-17T05:37:39.977Z,18.20
2018-10-17T05:40:08.424Z,18.20
2018-10-17T05:42:36.934Z,18.20
2018-10-17T05:45:06.636Z,18.20
2018-10-17T05:47:35.280Z,18.20
2018-10-17T05:50:03.991Z,18.20
2018-10-17T05:52:32.497Z,18.20
2018-10-17T05:55:01.025Z,18.20
2018-10-17T05:57:29.618Z,18.20
2018-10-17T05:59:58.092Z,18.30
2018-10-17T06:02:29.049Z,18.50
2018-10-17T06:04:57.516Z,18.60
2018-10-17T06:07:25.995Z,18.70
2018-10-17T06:09:54.499Z,18.80
2018-10-17T06:12:23.956Z,18.80
2018-10-17T06:17:22.693Z,18.70
2018-10-17T06:19:51.296Z,18.70
2018-10-17T06:22:19.757Z,18.70
2018-10-17T06:24:48.249Z,18.70
2018-10-17T06:27:16.759Z,18.70
2018-10-17T06:29:45.219Z,18.70
2018-10-17T06:32:13.685Z,18.60
2018-10-17T06:34:42.277Z,18.50
2018-10-17T06:42:07.358Z,18.70
2018-10-17T06:47:06.055Z,18.90
2018-10-17T06:49:34.505Z,19.00
2018-10-17T06:52:03.108Z,19.00
2018-10-17T06:54:31.699Z,19.10
2018-10-17T06:57:00.131Z,19.10
2018-10-17T06:59:28.701Z,19.20
2018-10-17T07:01:57.368Z,19.20
2018-10-17T07:04:25.803Z,19.20
2018-10-17T07:06:54.342Z,19.20
2018-10-17T07:09:22.864Z,19.20
2018-10-17T07:11:51.387Z,19.30
2018-10-17T07:16:48.820Z,19.40
2018-10-17T07:19:17.331Z,19.30
2018-10-17T07:21:45.752Z,19.20
2018-10-17T07:24:14.272Z,19.20
2018-10-17T07:26:42.767Z,19.10
2018-10-17T07:31:39.541Z,19.10
2018-10-17T07:34:07.954Z,19.10
2018-10-17T07:36:36.635Z,19.10
2018-10-17T07:39:07.140Z,19.10
2018-10-17T07:41:35.619Z,19.00
2018-10-17T07:44:04.908Z,19.00
2018-10-17T07:46:33.455Z,19.00
2018-10-17T07:49:01.911Z,19.00
2018-10-17T07:51:30.503Z,19.10
2018-10-17T07:53:59.026Z,19.30
2018-10-17T07:56:27.464Z,19.50
2018-10-17T07:58:56.001Z,19.50
2018-10-17T08:03:52.988Z,19.60
2018-10-17T08:06:21.896Z,19.60
2018-10-17T08:08:50.471Z,19.60
2018-10-17T08:11:18.954Z,19.70
2018-10-17T08:13:47.532Z,19.80
2018-10-17T08:16:16.135Z,19.90
2018-10-17T08:18:44.660Z,19.90
2018-10-17T08:21:13.329Z,19.90
2018-10-17T08:23:42.651Z,19.90
2018-10-17T08:28:39.428Z,19.80
2018-10-17T08:31:07.917Z,19.80
2018-10-17T08:33:37.143Z,19.90
2018-10-17T08:36:05.937Z,19.90
2018-10-17T08:38:34.288Z,19.90
2018-10-17T08:41:02.878Z,20.00
2018-10-17T08:43:31.343Z,20.20
2018-10-17T08:45:59.954Z,20.40
2018-10-17T08:48:28.522Z,20.50
2018-10-17T08:50:57.059Z,20.60
2018-10-17T08:53:25.572Z,20.60
2018-10-17T08:55:54.145Z,20.70
2018-10-17T08:58:22.624Z,20.60
2018-10-17T09:00:51.141Z,20.60
2018-10-17T09:06:22.142Z,20.80
2018-10-17T09:08:50.693Z,20.80
2018-10-17T09:11:19.304Z,20.80
2018-10-17T09:13:47.797Z,20.80
2018-10-17T09:16:16.428Z,20.90
2018-10-17T09:18:45.216Z,21.10
2018-10-17T09:21:14.018Z,21.10
2018-10-17T09:23:42.325Z,21.10
2018-10-17T09:26:10.997Z,21.00
2018-10-17T09:28:39.820Z,21.10
2018-10-17T09:31:08.282Z,21.20
2018-10-17T09:33:36.712Z,21.20
2018-10-17T09:36:05.931Z,21.30
2018-10-17T09:38:35.432Z,21.40
2018-10-17T09:41:03.898Z,21.50
2018-10-17T09:43:33.374Z,21.50
2018-10-17T09:46:01.930Z,21.50
2018-10-17T09:48:31.672Z,21.60
2018-10-17T09:51:02.350Z,21.60
2018-10-17T09:53:31.505Z,21.70
2018-10-17T09:56:00.017Z,21.80
2018-10-17T09:58:28.651Z,21.70
2018-10-17T10:01:02.406Z,21.70
2018-10-17T10:03:31.320Z,21.70
2018-10-17T10:08:28.044Z,21.80
2018-10-17T10:10:56.800Z,21.80
2018-10-17T10:13:25.344Z,21.80
2018-10-17T10:18:22.807Z,21.90
2018-10-17T10:20:51.284Z,22.00
2018-10-17T10:25:48.024Z,22.00
2018-10-17T10:28:18.329Z,22.10
2018-10-17T10:30:47.909Z,22.20
2018-10-17T10:33:16.543Z,22.30
2018-10-17T10:35:45.056Z,22.30
2018-10-17T10:38:13.673Z,22.40
2018-10-17T10:40:42.338Z,22.50
2018-10-17T10:43:10.917Z,22.50
2018-10-17T10:45:39.631Z,22.60
2018-10-17T10:48:08.513Z,22.70
2018-10-17T10:50:40.678Z,22.80
2018-10-17T10:53:09.501Z,22.80
2018-10-17T10:55:38.037Z,22.80
2018-10-17T10:58:06.654Z,22.80
2018-10-17T11:00:35.279Z,22.80
2018-10-17T11:03:03.866Z,22.90
2018-10-17T11:08:01.280Z,22.90
2018-10-17T11:10:30.634Z,23.00
2018-10-17T11:12:59.276Z,23.10
2018-10-17T11:15:27.884Z,23.20
2018-10-17T11:17:56.926Z,23.20
2018-10-17T11:20:25.439Z,23.30
2018-10-17T11:22:53.968Z,23.30
2018-10-17T11:25:22.466Z,23.30
2018-10-17T11:27:50.957Z,23.40
2018-10-17T11:30:19.479Z,23.40
2018-10-17T11:32:48.151Z,23.50
2018-10-17T11:35:16.949Z,23.60
2018-10-17T11:37:45.426Z,23.70
2018-10-17T11:40:14.081Z,23.70
2018-10-17T11:42:42.631Z,23.80
2018-10-17T11:45:11.178Z,23.80
2018-10-17T11:47:39.718Z,23.80
2018-10-17T11:50:09.358Z,23.90
2018-10-17T11:52:38.231Z,23.90
2018-10-17T11:55:07.042Z,23.90
2018-10-17T11:57:35.564Z,23.90
2018-10-17T12:00:04.848Z,23.90
2018-10-17T12:02:34.282Z,24.00
2018-10-17T12:05:03.120Z,24.00
2018-10-17T12:07:32.132Z,24.00
2018-10-17T12:10:00.581Z,24.00
2018-10-17T12:12:29.230Z,24.00
2018-10-17T12:14:57.670Z,24.00
2018-10-17T12:19:54.411Z,24.10
2018-10-17T12:22:22.911Z,24.20
2018-10-17T12:24:51.427Z,24.20
2018-10-17T12:27:20.014Z,24.30
2018-10-17T12:29:48.511Z,24.30
2018-10-17T12:32:17.197Z,24.40
2018-10-17T12:34:45.660Z,24.50
2018-10-17T12:37:14.678Z,24.50
2018-10-17T12:39:43.459Z,24.50
2018-10-17T12:42:12.268Z,24.50
2018-10-17T12:44:40.757Z,24.50
2018-10-17T12:47:09.296Z,24.60
2018-10-17T12:49:37.974Z,24.60
2018-10-17T12:52:06.577Z,24.60
2018-10-17T12:54:35.028Z,24.70
2018-10-17T12:57:03.597Z,24.70
2018-10-17T12:59:32.797Z,24.70
2018-10-17T13:02:01.413Z,24.80
2018-10-17T13:04:29.978Z,24.90
2018-10-17T13:06:58.478Z,24.90
2018-10-17T13:09:27.142Z,24.90
2018-10-17T13:11:55.644Z,24.90
2018-10-17T13:14:24.255Z,24.90
2018-10-17T13:16:52.981Z,25.00
2018-10-17T13:19:22.141Z,25.00
2018-10-17T13:21:51.450Z,25.10
2018-10-17T13:26:48.279Z,25.10
2018-10-17T13:29:17.612Z,25.10
2018-10-17T13:31:46.151Z,25.10
2018-10-17T13:34:14.638Z,25.00
2018-10-17T13:36:43.373Z,25.00
2018-10-17T13:39:13.322Z,25.00
2018-10-17T13:41:41.801Z,25.10
2018-10-17T13:44:10.803Z,25.10
2018-10-17T13:46:40.024Z,25.20
2018-10-17T13:49:08.638Z,25.20
2018-10-17T13:51:37.676Z,25.30
2018-10-17T13:54:06.471Z,25.30
2018-10-17T13:56:34.956Z,25.40
2018-10-17T13:59:03.509Z,25.30
2018-10-17T14:01:33.052Z,25.20
2018-10-17T14:04:01.661Z,25.20
2018-10-17T14:08:58.270Z,25.30
2018-10-17T14:11:26.864Z,25.30
2018-10-17T14:13:55.381Z,25.30
2018-10-17T14:16:23.927Z,25.30
2018-10-17T14:18:52.452Z,25.30
2018-10-17T14:21:20.956Z,25.30
2018-10-17T14:23:49.456Z,25.30
2018-10-17T14:26:17.943Z,25.20
2018-10-17T14:28:46.504Z,25.20
2018-10-17T14:31:15.126Z,25.20
2018-10-17T14:33:43.812Z,25.20
2018-10-17T14:36:12.483Z,25.10
2018-10-17T14:38:41.937Z,25.10
2018-10-17T14:41:10.692Z,25.10
2018-10-17T14:43:40.089Z,25.10
2018-10-17T14:46:09.121Z,25.10
2018-10-17T14:48:37.795Z,25.10
2018-10-17T14:53:34.730Z,25.10
2018-10-17T14:56:03.357Z,25.00
2018-10-17T14:58:32.486Z,25.00
2018-10-17T15:01:01.298Z,25.00
2018-10-17T15:03:31.141Z,25.00
2018-10-17T15:06:00.036Z,25.00
2018-10-17T15:08:28.532Z,25.00
2018-10-17T15:10:57.235Z,24.90
2018-10-17T15:13:25.537Z,24.90
2018-10-17T15:15:54.097Z,24.90
2018-10-17T15:18:22.648Z,24.90
2018-10-17T15:20:51.213Z,24.90
2018-10-17T15:25:48.645Z,24.90
2018-10-17T15:28:17.176Z,24.80
2018-10-17T15:30:45.779Z,24.80
2018-10-17T15:33:14.354Z,24.80
2018-10-17T15:38:12.294Z,24.80
2018-10-17T15:40:41.034Z,24.80
2018-10-17T15:43:09.637Z,24.70
2018-10-17T15:45:41.644Z,24.70
2018-10-17T15:48:10.651Z,24.70
2018-10-17T15:50:39.406Z,24.60
2018-10-17T15:53:08.661Z,24.60
2018-10-17T15:55:37.186Z,24.60
2018-10-17T15:58:06.006Z,24.60
2018-10-17T16:00:34.647Z,24.60
2018-10-17T16:03:03.361Z,24.60
2018-10-17T16:05:31.941Z,24.60
2018-10-17T16:10:29.117Z,24.50
2018-10-17T16:15:25.970Z,24.40
2018-10-17T16:20:23.083Z,24.30
2018-10-17T16:22:51.754Z,24.30
2018-10-17T16:25:20.369Z,24.30
2018-10-17T16:27:49.769Z,24.20
2018-10-17T16:30:18.561Z,24.20
2018-10-17T16:32:47.080Z,24.20
2018-10-17T16:35:15.863Z,24.20
2018-10-17T16:37:44.609Z,24.10
2018-10-17T16:40:13.249Z,24.10
2018-10-17T16:42:42.726Z,24.00
2018-10-17T16:45:12.265Z,24.00
2018-10-17T16:47:41.128Z,23.90
2018-10-17T16:50:10.756Z,23.90
2018-10-17T16:52:39.423Z,23.90
2018-10-17T16:55:08.996Z,23.90
2018-10-17T16:57:44.951Z,23.80
2018-10-17T17:00:14.380Z,23.80
2018-10-17T17:03:11.409Z,23.70
2018-10-17T17:05:40.137Z,23.70
2018-10-17T17:08:10.280Z,23.60
2018-10-17T17:10:40.017Z,23.60
2018-10-17T17:13:08.685Z,23.60
2018-10-17T17:15:37.392Z,23.60
2018-10-17T17:18:06.091Z,23.60
2018-10-17T17:20:34.597Z,23.60
2018-10-17T17:25:31.644Z,23.50
2018-10-17T17:30:28.513Z,23.50
2018-10-17T17:35:25.427Z,23.40
2018-10-17T17:37:54.042Z,23.40
2018-10-17T17:40:28.620Z,23.40
2018-10-17T17:42:57.241Z,23.30
2018-10-17T17:45:26.069Z,23.30
2018-10-17T17:47:54.701Z,23.30
2018-10-17T17:50:23.294Z,23.20
2018-10-17T17:52:51.904Z,23.20
2018-10-17T17:57:48.840Z,23.20
2018-10-17T18:00:22.507Z,23.20
2018-10-17T18:02:58.869Z,23.20
2018-10-17T18:08:00.177Z,23.10
2018-10-17T18:13:15.522Z,23.00
2018-10-17T18:15:46.216Z,23.00
2018-10-17T18:18:17.987Z,22.90
2018-10-17T18:21:09.863Z,22.90
2018-10-17T18:23:39.513Z,22.90
2018-10-17T18:26:12.092Z,22.80
2018-10-17T18:28:41.244Z,22.80
2018-10-17T18:33:38.709Z,22.80
2018-10-17T18:36:07.461Z,22.80
2018-10-17T18:38:36.242Z,22.80
2018-10-17T18:41:05.843Z,22.70
2018-10-17T18:43:35.281Z,22.70
2018-10-17T18:46:04.033Z,22.60
2018-10-17T18:48:34.245Z,22.60
2018-10-17T18:51:05.013Z,22.60
2018-10-17T18:53:34.042Z,22.60
2018-10-17T18:56:02.651Z,22.60
2018-10-17T18:58:31.306Z,22.60
2018-10-17T19:01:16.008Z,22.50
2018-10-17T19:06:14.756Z,22.50
2018-10-17T19:08:43.476Z,22.50
2018-10-17T19:11:14.272Z,22.40
2018-10-17T19:13:42.909Z,22.40
2018-10-17T19:16:11.643Z,22.40
2018-10-17T19:18:41.204Z,22.30
2018-10-17T19:21:09.911Z,22.30
2018-10-17T19:23:38.611Z,22.30
2018-10-17T19:26:08.129Z,22.20
2018-10-17T19:28:36.657Z,22.30
2018-10-17T19:31:05.353Z,22.30
2018-10-17T19:33:35.424Z,22.30
2018-10-17T19:36:04.092Z,22.20
2018-10-17T19:38:32.897Z,22.20
2018-10-17T19:41:01.846Z,22.20
2018-10-17T19:43:30.529Z,22.20
2018-10-17T19:45:59.177Z,22.20
2018-10-17T19:48:27.838Z,22.20
2018-10-17T19:50:57.454Z,22.20
2018-10-17T19:53:26.321Z,22.20
2018-10-17T19:56:29.682Z,22.20
2018-10-17T19:59:05.600Z,22.30
2018-10-17T20:01:36.180Z,22.20
2018-10-17T20:04:15.884Z,22.20
2018-10-17T20:06:47.638Z,22.20
2018-10-17T20:09:16.461Z,22.20
2018-10-17T20:11:48.829Z,22.20
2018-10-17T20:14:22.780Z,22.20
2018-10-17T20:16:56.608Z,22.20
2018-10-17T20:19:26.050Z,22.20
2018-10-17T20:27:12.646Z,22.20
2018-10-17T20:29:44.161Z,22.20
2018-10-17T20:32:22.997Z,22.10
2018-10-17T20:34:52.719Z,22.10
2018-10-17T20:37:23.560Z,22.10
2018-10-17T20:39:56.344Z,22.00
2018-10-17T20:42:25.340Z,22.00
2018-10-17T20:44:57.234Z,22.00
2018-10-17T20:49:25.359Z,22.00
2018-10-17T20:51:55.363Z,22.00
2018-10-17T20:54:27.880Z,21.90
2018-10-17T21:05:14.641Z,21.80
2018-10-17T21:07:57.339Z,21.80
2018-10-17T21:10:45.579Z,21.80
2018-10-17T21:22:36.382Z,21.70
2018-10-17T21:25:10.597Z,21.60
2018-10-17T21:27:54.995Z,21.60
2018-10-17T21:30:36.859Z,21.60
2018-10-17T21:33:11.574Z,21.70
2018-10-17T21:35:56.108Z,21.60
2018-10-17T21:38:25.144Z,21.60
2018-10-17T21:40:54.630Z,21.70
2018-10-17T21:43:23.480Z,21.70
2018-10-17T21:45:54.225Z,21.70
2018-10-17T21:48:22.918Z,21.70
2018-10-17T21:50:55.306Z,21.70
2018-10-17T21:53:25.647Z,21.70
2018-10-17T21:55:54.376Z,21.70
2018-10-17T21:58:23.005Z,21.70
2018-10-17T22:03:20.871Z,21.60
2018-10-17T22:08:21.682Z,21.60
2018-10-17T22:10:50.397Z,21.50
2018-10-17T22:13:20.021Z,21.50
2018-10-17T22:15:49.733Z,21.50
2018-10-17T22:18:22.731Z,21.40
2018-10-17T22:20:51.315Z,21.40
2018-10-17T22:23:19.784Z,21.40
2018-10-17T22:25:50.357Z,21.40
2018-10-17T22:28:20.899Z,21.40
2018-10-17T22:30:49.638Z,21.30
2018-10-17T22:33:18.468Z,21.30
2018-10-17T22:35:47.880Z,21.30
2018-10-17T22:38:16.422Z,21.30
2018-10-17T22:40:45.015Z,21.30
2018-10-17T22:43:15.857Z,21.20
2018-10-17T22:45:44.443Z,21.20
2018-10-17T22:48:13.067Z,21.20
2018-10-17T22:50:41.703Z,21.20
2018-10-17T22:53:10.254Z,21.20
2018-10-17T22:55:38.980Z,21.20
2018-10-17T22:58:07.516Z,21.10
2018-10-17T23:03:04.709Z,21.10
2018-10-17T23:05:33.174Z,21.00
2018-10-17T23:08:01.845Z,21.00
2018-10-17T23:10:30.339Z,21.00
2018-10-17T23:12:58.803Z,21.00
2018-10-17T23:15:27.324Z,20.90
2018-10-17T23:17:55.780Z,20.90
2018-10-17T23:20:24.264Z,20.90
2018-10-17T23:22:52.803Z,20.90
2018-10-17T23:25:21.279Z,20.90
2018-10-17T23:27:50.396Z,20.80
2018-10-17T23:30:18.952Z,20.80
2018-10-17T23:32:48.506Z,20.80
2018-10-17T23:35:17.023Z,20.80
2018-10-17T23:37:45.530Z,20.80
2018-10-17T23:40:14.007Z,20.80
2018-10-17T23:42:42.540Z,20.70
2018-10-17T23:45:11.031Z,20.70
2018-10-17T23:47:40.581Z,20.60
2018-10-17T23:50:09.466Z,20.60
2018-10-17T23:52:38.054Z,20.60
2018-10-17T23:55:07.751Z,20.60
2018-10-17T23:57:36.245Z,20.60
